Terminal Aerodrome Forecast
Issued by NWS Greer, SC

Home | Current Version | Previous Version | Text Only | Print | Product List | Glossary On
Versions: 1 2 3 4 5 6 7 8 9 10 11 12 13 14 15 16 17 18 19 20 21 22 23
538
FTUS42 KGSP 231135
TAFGSP
TAF
KGSP 231135Z 2312/2412 22008KT 6SM BR BKN010
     FM231300 22008KT P6SM BKN020
     FM231400 23010KT P6SM SCT250 PROB30 2321/2323 4SM -SHRA BKN110
     FM232300 21012G20KT P6SM SCT050
     FM240200 21013G20KT P6SM VCSH BKN050 PROB30 2406/2412 4SM -TSRA
      OVC025CB=

USA.gov is the U.S. government's official web portal to all federal, state and local government web resources and services.